Terminal Aerodrome Forecast
Issued by NWS Corpus Christi, TX

Home | Current Version | Previous Version | Text Only | Print | Product List | Glossary On
Versions: 1 2 3 4 5 6 7 8 9 10 11 12 13 14
282
FTUS44 KCRP 251123
TAFCRP
TAF
KCRP 251123Z 2512/2612 16004KT P6SM SKC
     FM251500 18018G22KT P6SM SKC
     FM252000 15023G29KT P6SM SKC
     FM260300 15013G20KT P6SM BKN015
     FM260600 17016KT P6SM OVC015=

USA.gov is the U.S. government's official web portal to all federal, state and local government web resources and services.